Terminal Aerodrome Forecast
Issued by NWS Spokane, WA

Home | Current Version | Previous Version | Text Only | Print | Product List | Glossary On
Versions: 1 2 3 4 5 6 7 8 9 10 11 12 13 14 15 16 17 18 19
000
FTUS46 KOTX 262354 AAA
TAFLWS
TAF AMD
KLWS 262354Z 2700/2724 07005KT 4SM -SN BR OVC012
      TEMPO 2700/2703 3/4SM -SN OVC004
     FM270300 VRB03KT 1SM -SN BR OVC009
     FM271200 24003KT 3SM -SHSN BR OVC010
     FM271800 29005KT 4SM -SN BR OVC020=

USA.gov is the U.S. government's official web portal to all federal, state and local government web resources and services.